Hovedside
METAR-TAF:

METAR-TAF

Lufthavner :

Stampede Pass, Washington, USA

breddegrad: 47-16-36N, lengdegrad: 121-20-14W, høyde over havet: 1207 m

Gjeldene værobservasjon

Denne rapporten ble laget for 1 time og 15 minutter siden, klokken 16:56 UTC
Flau vind
Temperatur 14°C
Luftfuktighet 31%
Trykk 1021 hPa
Skyfri himmel

METAR: KSMP 091656Z AUTO 00000KT CLR 14/M03 A3015 RMK AO2 SLP198 T01391033 PWINO $

Tid: 11:11 (18:11 UTC)


TAF: fraværende

Værobservasjoner og værvarsel for over 4000 flyplasser (METAR- og TAF-rapporter).

Tilgjengelige stasjoner er representert av de røde og gule prikkene på kartet.

Hold musepekeren over prikken for å se navnet på stasjonen.

Klikk så for å se værobservasjoner og -varsler.

For å forandre kartet kan du klikke på den grønne knappen med svart kryss for å zoome inn, på den grønne knappen med strek for å zoome ut, eller på de grønne pilene for å se tilstøtende kart.


METAR-TAF: